createdAt,value
2019-05-25T00:04:14.667Z,1004.14
2019-05-25T00:09:14.539Z,1004.13
2019-05-25T00:14:14.503Z,1004.14
2019-05-25T00:19:14.449Z,1004.15
2019-05-25T00:24:14.424Z,1004.13
2019-05-25T00:29:14.402Z,1004.10
2019-05-25T00:34:14.277Z,1004.10
2019-05-25T00:39:14.235Z,1004.09
2019-05-25T00:44:14.218Z,1004.12
2019-05-25T00:49:14.134Z,1004.17
2019-05-25T00:54:27.070Z,1004.14
2019-05-25T00:59:15.043Z,1004.05
2019-05-25T01:04:13.966Z,1004.02
2019-05-25T01:09:14.011Z,1004.00
2019-05-25T01:14:13.846Z,1003.98
2019-05-25T01:19:13.829Z,1003.97
2019-05-25T01:24:13.736Z,1004.10
2019-05-25T01:29:13.724Z,1004.11
2019-05-25T01:34:13.748Z,1004.21
2019-05-25T01:39:13.576Z,1004.24
2019-05-25T01:44:13.562Z,1004.30
2019-05-25T01:49:13.451Z,1004.25
2019-05-25T01:54:13.413Z,1004.33
2019-05-25T01:59:13.411Z,1004.32
2019-05-25T02:04:13.351Z,1004.37
2019-05-25T02:09:13.329Z,1004.44
2019-05-25T02:14:13.271Z,1004.38
2019-05-25T02:19:13.380Z,1004.41
2019-05-25T02:24:13.285Z,1004.38
2019-05-25T02:29:13.210Z,1004.40
2019-05-25T02:34:13.098Z,1004.38
2019-05-25T02:39:13.031Z,1004.38
2019-05-25T02:44:12.935Z,1004.34
2019-05-25T02:49:13.020Z,1004.30
2019-05-25T02:54:13.018Z,1004.35
2019-05-25T02:59:12.894Z,1004.33
2019-05-25T03:04:12.880Z,1004.32
2019-05-25T03:09:12.721Z,1004.29
2019-05-25T03:14:12.735Z,1004.26
2019-05-25T03:19:12.606Z,1004.30
2019-05-25T03:24:12.472Z,1004.51
2019-05-25T03:29:12.413Z,1004.57
2019-05-25T03:34:12.598Z,1004.62
2019-05-25T03:39:12.410Z,1004.65
2019-05-25T03:44:12.356Z,1004.64
2019-05-25T03:49:12.274Z,1004.68
2019-05-25T03:54:12.238Z,1004.70
2019-05-25T03:59:12.090Z,1004.78
2019-05-25T04:04:12.024Z,1004.85
2019-05-25T04:09:13.063Z,1004.95
2019-05-25T04:14:12.002Z,1004.94
2019-05-25T04:19:11.862Z,1004.92
2019-05-25T04:24:11.914Z,1005.05
2019-05-25T04:29:11.844Z,1005.11
2019-05-25T04:34:11.739Z,1005.07
2019-05-25T04:39:11.717Z,1005.08
2019-05-25T04:44:11.776Z,1005.08
2019-05-25T04:49:11.757Z,1005.11
2019-05-25T04:54:13.525Z,1005.14
2019-05-25T04:59:12.601Z,1005.14
2019-05-25T05:04:11.491Z,1005.12
2019-05-25T05:09:11.443Z,1005.21
2019-05-25T05:14:11.324Z,1005.14
2019-05-25T05:19:11.234Z,1005.12
2019-05-25T05:24:11.167Z,1005.13
2019-05-25T05:29:11.122Z,1005.16
2019-05-25T05:34:11.012Z,1005.04
2019-05-25T05:39:11.007Z,1005.07
2019-05-25T05:44:11.064Z,1005.15
2019-05-25T05:49:11.983Z,1005.20
2019-05-25T05:54:11.037Z,1005.20
2019-05-25T05:59:10.942Z,1005.23
2019-05-25T06:04:10.982Z,1005.25
2019-05-25T06:09:10.735Z,1005.30
2019-05-25T06:14:10.686Z,1005.30
2019-05-25T06:19:13.797Z,1005.28
2019-05-25T06:24:10.581Z,1005.40
2019-05-25T06:29:10.447Z,1005.37
2019-05-25T06:34:10.374Z,1005.45
2019-05-25T06:39:10.354Z,1005.43
2019-05-25T06:44:10.283Z,1005.54
2019-05-25T06:49:10.284Z,1005.52
2019-05-25T06:54:10.314Z,1005.50
2019-05-25T06:59:10.242Z,1005.57
2019-05-25T07:04:10.305Z,1005.47
2019-05-25T07:09:10.122Z,1005.46
2019-05-25T07:14:09.977Z,1005.52
2019-05-25T07:19:09.989Z,1005.57
2019-05-25T07:24:09.940Z,1005.62
2019-05-25T07:29:09.866Z,1005.62
2019-05-25T07:34:09.774Z,1005.59
2019-05-25T07:39:09.708Z,1005.63
2019-05-25T07:44:09.808Z,1005.63
2019-05-25T07:49:09.773Z,1005.64
2019-05-25T07:54:09.570Z,1005.67
2019-05-25T07:59:09.522Z,1005.70
2019-05-25T08:04:09.492Z,1005.59
2019-05-25T08:09:09.465Z,1005.64
2019-05-25T08:14:09.525Z,1005.61
2019-05-25T08:19:09.403Z,1005.64
2019-05-25T08:24:09.333Z,1005.68
2019-05-25T08:29:09.263Z,1005.60
2019-05-25T08:34:09.480Z,1005.67
2019-05-25T08:39:09.219Z,1005.72
2019-05-25T08:44:09.124Z,1005.66
2019-05-25T08:49:09.138Z,1005.62
2019-05-25T08:54:09.085Z,1005.64
2019-05-25T08:59:09.051Z,1005.63
2019-05-25T09:04:08.959Z,1005.65
2019-05-25T09:09:09.018Z,1005.68
2019-05-25T09:14:08.919Z,1005.70
2019-05-25T09:19:08.907Z,1005.73
2019-05-25T09:24:08.819Z,1005.72
2019-05-25T09:29:08.666Z,1005.80
2019-05-25T09:34:08.657Z,1005.79
2019-05-25T09:39:08.584Z,1005.80
2019-05-25T09:44:08.566Z,1005.81
2019-05-25T09:49:08.551Z,1005.86
2019-05-25T09:54:08.751Z,1005.87
2019-05-25T09:59:19.630Z,1005.84
2019-05-25T10:04:09.448Z,1005.87
2019-05-25T10:09:08.329Z,1005.93
2019-05-25T10:14:08.350Z,1005.98
2019-05-25T10:19:08.227Z,1005.98
2019-05-25T10:24:08.236Z,1005.93
2019-05-25T10:29:08.291Z,1005.88
2019-05-25T10:34:08.257Z,1005.83
2019-05-25T10:39:08.113Z,1005.79
2019-05-25T10:44:08.051Z,1005.76
2019-05-25T10:49:11.090Z,1005.75
2019-05-25T10:54:07.946Z,1005.65
2019-05-25T10:59:07.893Z,1005.74
2019-05-25T11:04:07.946Z,1005.67
2019-05-25T11:09:07.968Z,1005.58
2019-05-25T11:14:07.809Z,1005.60
2019-05-25T11:19:07.879Z,1005.61
2019-05-25T11:24:07.844Z,1005.60
2019-05-25T11:29:07.979Z,1005.67
2019-05-25T11:34:07.772Z,1005.62
2019-05-25T11:39:07.701Z,1005.64
2019-05-25T11:44:07.705Z,1005.62
2019-05-25T11:49:21.618Z,1005.55
2019-05-25T11:54:08.536Z,1005.57
2019-05-25T11:59:07.531Z,1005.54
2019-05-25T12:04:07.687Z,1005.55
2019-05-25T12:09:07.428Z,1005.53
2019-05-25T12:14:07.483Z,1005.46
2019-05-25T12:19:08.437Z,1005.46
2019-05-25T12:24:07.350Z,1005.41
2019-05-25T12:29:07.417Z,1005.37
2019-05-25T12:34:07.297Z,1005.43
2019-05-25T12:39:07.194Z,1005.43
2019-05-25T12:44:07.172Z,1005.36
2019-05-25T12:49:07.097Z,1005.45
2019-05-25T12:54:07.090Z,1005.34
2019-05-25T12:59:07.046Z,1005.41
2019-05-25T13:04:07.095Z,1005.31
2019-05-25T13:09:07.043Z,1005.26
2019-05-25T13:14:14.484Z,1005.26
2019-05-25T13:19:07.951Z,1005.24
2019-05-25T13:24:06.933Z,1005.14
2019-05-25T13:29:06.829Z,1005.21
2019-05-25T13:34:06.739Z,1005.07
2019-05-25T13:39:06.906Z,1005.07
2019-05-25T13:44:06.691Z,1004.99
2019-05-25T13:49:06.621Z,1005.01
2019-05-25T13:54:06.641Z,1005.03
2019-05-25T13:59:06.542Z,1004.94
2019-05-25T14:04:06.592Z,1004.90
2019-05-25T14:09:06.478Z,1004.89
2019-05-25T14:14:06.429Z,1004.89
2019-05-25T14:19:06.381Z,1004.92
2019-05-25T14:24:06.390Z,1004.92
2019-05-25T14:29:06.312Z,1004.95
2019-05-25T14:34:06.270Z,1004.84
2019-05-25T14:39:06.290Z,1004.88
2019-05-25T14:44:06.167Z,1004.92
2019-05-25T14:49:06.140Z,1004.88
2019-05-25T14:54:06.073Z,1004.84
2019-05-25T14:59:06.080Z,1004.88
2019-05-25T15:04:06.120Z,1004.83
2019-05-25T15:09:06.006Z,1004.88
2019-05-25T15:14:06.221Z,1004.87
2019-05-25T15:19:05.921Z,1004.87
2019-05-25T15:24:06.003Z,1004.86
2019-05-25T15:29:05.797Z,1004.78
2019-05-25T15:34:06.239Z,1004.83
2019-05-25T15:39:05.891Z,1004.82
2019-05-25T15:44:05.685Z,1004.82
2019-05-25T15:49:05.599Z,1004.72
2019-05-25T15:54:10.147Z,1004.75
2019-05-25T15:59:06.652Z,1004.78
2019-05-25T16:04:05.623Z,1004.82
2019-05-25T16:09:05.545Z,1004.75
2019-05-25T16:14:07.559Z,1004.77
2019-05-25T16:19:05.444Z,1004.80
2019-05-25T16:24:08.027Z,1004.77
2019-05-25T16:29:05.238Z,1004.64
2019-05-25T16:34:05.243Z,1004.59
2019-05-25T16:39:05.136Z,1004.59
2019-05-25T16:44:05.103Z,1004.61
2019-05-25T16:49:05.039Z,1004.65
2019-05-25T16:54:04.999Z,1004.59
2019-05-25T16:59:04.954Z,1004.64
2019-05-25T17:04:04.954Z,1004.57
2019-05-25T17:09:04.879Z,1004.60
2019-05-25T17:14:04.809Z,1004.64
2019-05-25T17:19:04.760Z,1004.59
2019-05-25T17:24:04.734Z,1004.63
2019-05-25T17:29:04.668Z,1004.65
2019-05-25T17:34:04.645Z,1004.57
2019-05-25T17:39:04.583Z,1004.60
2019-05-25T17:44:04.552Z,1004.69
2019-05-25T17:49:04.484Z,1004.62
2019-05-25T17:54:04.472Z,1004.64
2019-05-25T17:59:04.410Z,1004.64
2019-05-25T18:04:07.740Z,1004.68
2019-05-25T18:09:04.402Z,1004.70
2019-05-25T18:14:04.402Z,1004.71
2019-05-25T18:19:04.342Z,1004.61
2019-05-25T18:24:04.367Z,1004.66
2019-05-25T18:29:04.119Z,1004.56
2019-05-25T18:34:04.089Z,1004.57
2019-05-25T18:39:04.022Z,1004.63
2019-05-25T18:44:04.036Z,1004.58
2019-05-25T18:49:03.996Z,1004.58
2019-05-25T18:54:03.929Z,1004.63
2019-05-25T18:59:03.858Z,1004.66
2019-05-25T19:04:03.791Z,1004.71
2019-05-25T19:09:03.780Z,1004.73
2019-05-25T19:14:03.681Z,1004.72
2019-05-25T19:19:03.864Z,1004.78
2019-05-25T19:24:03.659Z,1004.73
2019-05-25T19:29:05.646Z,1004.79
2019-05-25T19:34:03.484Z,1004.87
2019-05-25T19:39:03.341Z,1005.02
2019-05-25T19:44:03.255Z,1005.00
2019-05-25T19:49:03.227Z,1005.10
2019-05-25T19:54:03.146Z,1005.03
2019-05-25T19:59:03.112Z,1005.21
2019-05-25T20:04:03.082Z,1005.26
2019-05-25T20:09:03.014Z,1005.24
2019-05-25T20:14:02.914Z,1005.25
2019-05-25T20:19:02.895Z,1005.27
2019-05-25T20:24:02.922Z,1005.28
2019-05-25T20:29:02.797Z,1005.24
2019-05-25T20:34:02.697Z,1005.27
2019-05-25T20:39:02.687Z,1005.29
2019-05-25T20:44:02.612Z,1005.20
2019-05-25T20:49:02.548Z,1005.29
2019-05-25T20:54:02.532Z,1005.30
2019-05-25T20:59:02.450Z,1005.31
2019-05-25T21:04:02.374Z,1005.25
2019-05-25T21:09:02.346Z,1005.21
2019-05-25T21:14:02.303Z,1005.27
2019-05-25T21:19:03.107Z,1005.27
2019-05-25T21:24:02.185Z,1005.24
2019-05-25T21:29:02.103Z,1005.28
2019-05-25T21:34:02.084Z,1005.29
2019-05-25T21:39:02.006Z,1005.28
2019-05-25T21:44:01.947Z,1005.28
2019-05-25T21:49:01.902Z,1005.26
2019-05-25T21:54:01.882Z,1005.25
2019-05-25T21:59:01.783Z,1005.29
2019-05-25T22:04:01.736Z,1005.30
2019-05-25T22:09:01.664Z,1005.23
2019-05-25T22:14:01.620Z,1005.15
2019-05-25T22:19:01.595Z,1005.18
2019-05-25T22:24:01.496Z,1005.18
2019-05-25T22:29:01.443Z,1005.13
2019-05-25T22:34:01.377Z,1005.20
2019-05-25T22:39:01.374Z,1005.21
2019-05-25T22:44:01.326Z,1005.17
2019-05-25T22:49:01.287Z,1005.11
2019-05-25T22:54:01.231Z,1005.02
2019-05-25T22:59:01.122Z,1005.10
2019-05-25T23:04:01.097Z,1005.03
2019-05-25T23:09:01.039Z,1004.95
2019-05-25T23:14:00.944Z,1004.89
2019-05-25T23:19:00.944Z,1005.00
2019-05-25T23:24:00.909Z,1004.87
2019-05-25T23:29:00.813Z,1004.80
2019-05-25T23:34:00.762Z,1004.85
2019-05-25T23:39:00.701Z,1004.80
2019-05-25T23:44:00.692Z,1004.81
2019-05-25T23:49:00.612Z,1004.79
2019-05-25T23:54:00.588Z,1004.82
2019-05-25T23:59:00.512Z,1004.80
